METAR ET TAF INFORMATION
METAR FOR LELL
ADDS - METARS form results

(0558 UTC 07 March 2021)
Data provider http://aviationweather.gov/metar/data/
 
METAR text: LELL 070530Z AUTO 00000KT CAVOK 09/08 Q1021
Conditions at: LELL (SABADELL , ES) observed 0530 UTC 07 March 2021
Temperature: 9.0°C (48°F)
Dewpoint: 8.0°C (46°F) [RH = 93%]
Pressure (altimeter): 30.15 inches Hg (1021.0 mb)
Winds: calm
Visibility: 6 or more miles (10+ km)
Ceiling: ceiling and visibility are OK
Clouds: unknown
Weather: no significant weather observed at this time

METAR text: LELL 070500Z AUTO 00000KT 9999 FEW069 09/07 Q1021
Conditions at: LELL (SABADELL , ES) observed 0500 UTC 07 March 2021
Temperature: 9.0°C (48°F)
Dewpoint: 7.0°C (45°F) [RH = 87%]
Pressure (altimeter): 30.15 inches Hg (1021.0 mb)
Winds: calm
Visibility: 6 or more miles (10+ km)
Ceiling: at least 12,000 feet AGL
Clouds: few clouds at 6900 feet AGL
Weather: no significant weather observed at this time

Forecast for: LELL (SABADELL , ES)
Text: TAF LELL 070200Z 0703/0803 12007KT 9999 SCT030 TX14/0713Z TN07/0706Z
Forecast period: 0300 UTC 07 March 2021 to 0300 UTC 08 March 2021
Forecast type: FROM: standard forecast or significant change
Winds: from the ESE (120 degrees) at 8 MPH (7 knots; 3.6 m/s)
Visibility: 6 or more miles (10+ km)
Ceiling: at least 12,000 feet AGL
Clouds: scattered clouds at 3000 feet AGL
Weather: no significant weather forecast for this period
Text: PROB30
Forecast period: 1800 UTC 07 March 2021 to 0300 UTC 08 March 2021
Forecast type: TEMPORARY: The following changes expected for less than half the time period
Visibility: missing
Ceiling: 3000 feet AGL
Clouds: broken clouds at 3000 feet AGL
Weather: RA  (moderate rain)

 AÉROPORT DE AÉROPORT

 INFORMATIONS DE PISTE
Piste 13 Longueur de la piste 2953 ft Largeur de la piste 0 ft
Élévation de la piste 485 ft Seuil de la piste déplacés 0 ft Runway heading 0
Piste 31 Longueur de la piste 2953 ft Largeur de la piste 0 ft
Élévation de la piste 445 ft Seuil de la piste déplacés 0 ft Runway heading 0

 AÉROPORT FRÉQUENCES

 SIDA DE NAVIGATION
Type NDB Nom Sabadell Féquence 367 KHZ



Powered by Virtual Airlines Manager [v2.6.2]